sensor_id;sensor_type;location;lat;lon;timestamp;temperature;humidity
44900;DHT22;30628;51.188;6.770;2023-07-29T00:00:45;21.00;99.90
44900;DHT22;30628;51.188;6.770;2023-07-29T00:03:11;21.10;99.90
44900;DHT22;30628;51.188;6.770;2023-07-29T00:05:37;21.20;99.90
44900;DHT22;30628;51.188;6.770;2023-07-29T00:08:03;21.10;99.90
44900;DHT22;30628;51.188;6.770;2023-07-29T00:10:31;21.10;99.90
44900;DHT22;30628;51.188;6.770;2023-07-29T00:12:57;21.00;99.90
44900;DHT22;30628;51.188;6.770;2023-07-29T00:15:23;20.90;99.90
44900;DHT22;30628;51.188;6.770;2023-07-29T00:17:48;20.90;99.90
44900;DHT22;30628;51.188;6.770;2023-07-29T00:20:14;20.90;99.90
44900;DHT22;30628;51.188;6.770;2023-07-29T00:22:40;20.90;99.90
44900;DHT22;30628;51.188;6.770;2023-07-29T00:25:06;20.90;99.90
44900;DHT22;30628;51.188;6.770;2023-07-29T00:27:32;21.00;99.90
44900;DHT22;30628;51.188;6.770;2023-07-29T00:29:58;21.00;99.90
44900;DHT22;30628;51.188;6.770;2023-07-29T00:32:23;21.00;99.90
44900;DHT22;30628;51.188;6.770;2023-07-29T00:34:49;21.00;99.90
44900;DHT22;30628;51.188;6.770;2023-07-29T00:37:18;21.00;99.90
44900;DHT22;30628;51.188;6.770;2023-07-29T00:39:43;21.00;99.90
44900;DHT22;30628;51.188;6.770;2023-07-29T00:42:09;21.00;99.90
44900;DHT22;30628;51.188;6.770;2023-07-29T00:44:34;20.90;99.90
44900;DHT22;30628;51.188;6.770;2023-07-29T00:47:02;20.80;99.90
44900;DHT22;30628;51.188;6.770;2023-07-29T00:49:29;20.70;99.90
44900;DHT22;30628;51.188;6.770;2023-07-29T00:51:54;20.70;99.90
44900;DHT22;30628;51.188;6.770;2023-07-29T00:54:20;20.80;99.90
44900;DHT22;30628;51.188;6.770;2023-07-29T00:56:46;20.90;99.90
44900;DHT22;30628;51.188;6.770;2023-07-29T00:59:11;21.00;99.90
44900;DHT22;30628;51.188;6.770;2023-07-29T01:01:38;21.10;99.90
44900;DHT22;30628;51.188;6.770;2023-07-29T01:04:04;20.90;99.90
44900;DHT22;30628;51.188;6.770;2023-07-29T01:09:20;20.90;99.90
44900;DHT22;30628;51.188;6.770;2023-07-29T01:17:36;20.80;99.90
44900;DHT22;30628;51.188;6.770;2023-07-29T01:20:09;20.80;99.90
44900;DHT22;30628;51.188;6.770;2023-07-29T01:22:35;20.70;99.90
44900;DHT22;30628;51.188;6.770;2023-07-29T01:25:02;20.80;99.90
44900;DHT22;30628;51.188;6.770;2023-07-29T01:27:29;20.80;99.90
44900;DHT22;30628;51.188;6.770;2023-07-29T01:29:56;20.90;99.90
44900;DHT22;30628;51.188;6.770;2023-07-29T01:32:54;20.90;99.90
44900;DHT22;30628;51.188;6.770;2023-07-29T01:38:13;20.80;99.90
44900;DHT22;30628;51.188;6.770;2023-07-29T01:40:40;20.80;99.90
44900;DHT22;30628;51.188;6.770;2023-07-29T01:43:06;20.80;99.90
44900;DHT22;30628;51.188;6.770;2023-07-29T01:45:33;20.90;99.90
44900;DHT22;30628;51.188;6.770;2023-07-29T01:48:10;20.80;99.90
44900;DHT22;30628;51.188;6.770;2023-07-29T01:50:36;20.80;99.90
44900;DHT22;30628;51.188;6.770;2023-07-29T01:53:01;20.70;99.90
44900;DHT22;30628;51.188;6.770;2023-07-29T01:55:27;20.70;99.90
44900;DHT22;30628;51.188;6.770;2023-07-29T01:57:52;20.70;99.90
44900;DHT22;30628;51.188;6.770;2023-07-29T02:00:19;20.70;99.90
44900;DHT22;30628;51.188;6.770;2023-07-29T02:02:45;20.70;99.90
44900;DHT22;30628;51.188;6.770;2023-07-29T02:05:10;20.80;99.90
44900;DHT22;30628;51.188;6.770;2023-07-29T02:07:36;20.80;99.90
44900;DHT22;30628;51.188;6.770;2023-07-29T02:10:01;20.70;99.90
44900;DHT22;30628;51.188;6.770;2023-07-29T02:12:27;20.70;99.90
44900;DHT22;30628;51.188;6.770;2023-07-29T02:14:53;20.70;99.90
44900;DHT22;30628;51.188;6.770;2023-07-29T02:17:18;20.80;99.90
44900;DHT22;30628;51.188;6.770;2023-07-29T02:19:44;20.90;99.90
44900;DHT22;30628;51.188;6.770;2023-07-29T02:22:12;20.90;99.90
44900;DHT22;30628;51.188;6.770;2023-07-29T02:24:38;21.00;99.90
44900;DHT22;30628;51.188;6.770;2023-07-29T02:27:04;21.00;99.90
44900;DHT22;30628;51.188;6.770;2023-07-29T02:29:29;21.10;99.90
44900;DHT22;30628;51.188;6.770;2023-07-29T02:31:55;21.00;99.90
44900;DHT22;30628;51.188;6.770;2023-07-29T02:34:21;21.00;99.90
44900;DHT22;30628;51.188;6.770;2023-07-29T02:36:47;20.90;99.90
44900;DHT22;30628;51.188;6.770;2023-07-29T02:39:12;20.90;99.90
44900;DHT22;30628;51.188;6.770;2023-07-29T02:41:38;20.80;99.90
44900;DHT22;30628;51.188;6.770;2023-07-29T02:44:05;20.80;99.90
44900;DHT22;30628;51.188;6.770;2023-07-29T02:46:30;20.80;99.90
44900;DHT22;30628;51.188;6.770;2023-07-29T02:48:56;20.90;99.90
44900;DHT22;30628;51.188;6.770;2023-07-29T02:51:21;20.90;99.90
44900;DHT22;30628;51.188;6.770;2023-07-29T02:53:47;20.90;99.90
44900;DHT22;30628;51.188;6.770;2023-07-29T02:56:13;20.90;99.90
44900;DHT22;30628;51.188;6.770;2023-07-29T02:58:39;20.80;99.90
44900;DHT22;30628;51.188;6.770;2023-07-29T03:01:06;20.90;99.90
44900;DHT22;30628;51.188;6.770;2023-07-29T03:03:32;20.80;99.90
44900;DHT22;30628;51.188;6.770;2023-07-29T03:06:09;20.80;99.90
44900;DHT22;30628;51.188;6.770;2023-07-29T03:08:35;20.80;99.90
44900;DHT22;30628;51.188;6.770;2023-07-29T03:11:09;20.90;99.90
44900;DHT22;30628;51.188;6.770;2023-07-29T03:13:35;20.90;99.90
44900;DHT22;30628;51.188;6.770;2023-07-29T03:16:14;20.80;99.90
44900;DHT22;30628;51.188;6.770;2023-07-29T03:18:41;20.70;99.90
44900;DHT22;30628;51.188;6.770;2023-07-29T03:21:07;20.70;99.90
44900;DHT22;30628;51.188;6.770;2023-07-29T03:23:41;20.80;99.90
44900;DHT22;30628;51.188;6.770;2023-07-29T03:26:07;20.70;99.90
44900;DHT22;30628;51.188;6.770;2023-07-29T03:28:38;20.80;99.90
44900;DHT22;30628;51.188;6.770;2023-07-29T03:31:04;20.80;99.90
44900;DHT22;30628;51.188;6.770;2023-07-29T03:33:30;20.80;99.90
44900;DHT22;30628;51.188;6.770;2023-07-29T03:35:56;20.70;99.90
44900;DHT22;30628;51.188;6.770;2023-07-29T03:38:21;20.70;99.90
44900;DHT22;30628;51.188;6.770;2023-07-29T03:40:47;20.70;99.90
44900;DHT22;30628;51.188;6.770;2023-07-29T03:43:13;20.70;99.90
44900;DHT22;30628;51.188;6.770;2023-07-29T03:45:40;20.70;99.90
44900;DHT22;30628;51.188;6.770;2023-07-29T03:48:06;20.70;99.90
44900;DHT22;30628;51.188;6.770;2023-07-29T03:50:33;20.70;99.90
44900;DHT22;30628;51.188;6.770;2023-07-29T03:53:07;20.70;99.90
44900;DHT22;30628;51.188;6.770;2023-07-29T03:55:32;20.80;99.90
44900;DHT22;30628;51.188;6.770;2023-07-29T03:57:59;20.80;99.90
44900;DHT22;30628;51.188;6.770;2023-07-29T04:00:26;20.70;99.90
44900;DHT22;30628;51.188;6.770;2023-07-29T04:02:52;20.70;99.90
44900;DHT22;30628;51.188;6.770;2023-07-29T04:05:18;20.70;99.90
44900;DHT22;30628;51.188;6.770;2023-07-29T04:07:43;20.70;99.90
44900;DHT22;30628;51.188;6.770;2023-07-29T04:10:09;20.70;99.90
44900;DHT22;30628;51.188;6.770;2023-07-29T04:12:35;20.70;99.90
44900;DHT22;30628;51.188;6.770;2023-07-29T04:15:01;20.60;99.90
44900;DHT22;30628;51.188;6.770;2023-07-29T04:17:26;20.60;99.90
44900;DHT22;30628;51.188;6.770;2023-07-29T04:19:52;20.50;99.90
44900;DHT22;30628;51.188;6.770;2023-07-29T04:22:17;20.60;99.90
44900;DHT22;30628;51.188;6.770;2023-07-29T04:24:43;20.60;99.90
44900;DHT22;30628;51.188;6.770;2023-07-29T04:27:09;20.50;99.90
44900;DHT22;30628;51.188;6.770;2023-07-29T04:29:35;20.50;99.90
44900;DHT22;30628;51.188;6.770;2023-07-29T04:32:02;20.60;99.90
44900;DHT22;30628;51.188;6.770;2023-07-29T04:34:28;20.50;99.90
44900;DHT22;30628;51.188;6.770;2023-07-29T04:36:53;20.40;99.90
44900;DHT22;30628;51.188;6.770;2023-07-29T04:39:19;20.30;99.90
44900;DHT22;30628;51.188;6.770;2023-07-29T04:41:44;20.30;99.90
44900;DHT22;30628;51.188;6.770;2023-07-29T04:44:10;20.20;99.90
44900;DHT22;30628;51.188;6.770;2023-07-29T04:46:36;20.20;99.90
44900;DHT22;30628;51.188;6.770;2023-07-29T04:49:02;20.10;99.90
44900;DHT22;30628;51.188;6.770;2023-07-29T04:51:28;20.00;99.90
44900;DHT22;30628;51.188;6.770;2023-07-29T04:53:54;20.00;99.90
44900;DHT22;30628;51.188;6.770;2023-07-29T04:56:19;20.00;99.90
44900;DHT22;30628;51.188;6.770;2023-07-29T04:58:45;20.00;99.90
44900;DHT22;30628;51.188;6.770;2023-07-29T05:01:11;20.10;99.90
44900;DHT22;30628;51.188;6.770;2023-07-29T05:03:36;20.10;99.90
44900;DHT22;30628;51.188;6.770;2023-07-29T05:06:03;20.20;99.90
44900;DHT22;30628;51.188;6.770;2023-07-29T05:08:29;20.20;99.90
44900;DHT22;30628;51.188;6.770;2023-07-29T05:10:55;20.30;99.90
44900;DHT22;30628;51.188;6.770;2023-07-29T05:13:22;20.30;99.90
44900;DHT22;30628;51.188;6.770;2023-07-29T05:15:48;20.30;99.90
44900;DHT22;30628;51.188;6.770;2023-07-29T05:18:14;20.30;99.90
44900;DHT22;30628;51.188;6.770;2023-07-29T05:20:40;20.40;99.90
44900;DHT22;30628;51.188;6.770;2023-07-29T05:23:06;20.40;99.90
44900;DHT22;30628;51.188;6.770;2023-07-29T05:25:32;20.40;99.90
44900;DHT22;30628;51.188;6.770;2023-07-29T05:28:00;20.30;99.90
44900;DHT22;30628;51.188;6.770;2023-07-29T05:30:26;20.30;99.90
44900;DHT22;30628;51.188;6.770;2023-07-29T05:32:52;20.20;99.90
44900;DHT22;30628;51.188;6.770;2023-07-29T05:35:18;20.10;99.90
44900;DHT22;30628;51.188;6.770;2023-07-29T05:37:43;20.10;99.90
44900;DHT22;30628;51.188;6.770;2023-07-29T05:40:09;20.10;99.90
44900;DHT22;30628;51.188;6.770;2023-07-29T05:42:35;20.10;99.90
44900;DHT22;30628;51.188;6.770;2023-07-29T05:45:01;20.00;99.90
44900;DHT22;30628;51.188;6.770;2023-07-29T05:47:27;20.10;99.90
44900;DHT22;30628;51.188;6.770;2023-07-29T05:49:52;20.20;99.90
44900;DHT22;30628;51.188;6.770;2023-07-29T05:52:18;20.20;99.90
44900;DHT22;30628;51.188;6.770;2023-07-29T05:54:44;20.10;99.90
44900;DHT22;30628;51.188;6.770;2023-07-29T05:57:13;20.20;99.90
44900;DHT22;30628;51.188;6.770;2023-07-29T05:59:39;20.10;99.90
44900;DHT22;30628;51.188;6.770;2023-07-29T06:02:04;20.10;99.90
44900;DHT22;30628;51.188;6.770;2023-07-29T06:04:30;20.10;99.90
44900;DHT22;30628;51.188;6.770;2023-07-29T06:06:56;20.10;99.90
44900;DHT22;30628;51.188;6.770;2023-07-29T06:09:24;20.10;99.90
44900;DHT22;30628;51.188;6.770;2023-07-29T06:11:51;20.10;99.90
44900;DHT22;30628;51.188;6.770;2023-07-29T06:14:16;20.00;99.90
44900;DHT22;30628;51.188;6.770;2023-07-29T06:16:42;20.10;99.90
44900;DHT22;30628;51.188;6.770;2023-07-29T06:19:07;20.10;99.90
44900;DHT22;30628;51.188;6.770;2023-07-29T06:21:34;20.00;99.90
44900;DHT22;30628;51.188;6.770;2023-07-29T06:24:00;20.00;99.90
44900;DHT22;30628;51.188;6.770;2023-07-29T06:26:26;20.10;99.90
44900;DHT22;30628;51.188;6.770;2023-07-29T06:28:51;20.00;99.90
44900;DHT22;30628;51.188;6.770;2023-07-29T06:31:17;20.00;99.90
44900;DHT22;30628;51.188;6.770;2023-07-29T06:33:42;19.90;99.90
44900;DHT22;30628;51.188;6.770;2023-07-29T06:36:08;20.00;99.90
44900;DHT22;30628;51.188;6.770;2023-07-29T06:38:34;20.00;99.90
44900;DHT22;30628;51.188;6.770;2023-07-29T06:40:59;20.00;99.90
44900;DHT22;30628;51.188;6.770;2023-07-29T06:43:25;20.00;99.90
44900;DHT22;30628;51.188;6.770;2023-07-29T06:45:50;20.00;99.90
44900;DHT22;30628;51.188;6.770;2023-07-29T06:48:17;20.10;99.90
44900;DHT22;30628;51.188;6.770;2023-07-29T06:50:44;20.10;99.90
44900;DHT22;30628;51.188;6.770;2023-07-29T06:53:09;20.20;99.90
44900;DHT22;30628;51.188;6.770;2023-07-29T06:55:35;20.30;99.90
44900;DHT22;30628;51.188;6.770;2023-07-29T06:58:01;20.40;99.90
44900;DHT22;30628;51.188;6.770;2023-07-29T07:00:27;20.40;99.90
44900;DHT22;30628;51.188;6.770;2023-07-29T07:02:52;20.50;99.90
44900;DHT22;30628;51.188;6.770;2023-07-29T07:05:18;20.60;99.90
44900;DHT22;30628;51.188;6.770;2023-07-29T07:07:44;20.60;99.90
44900;DHT22;30628;51.188;6.770;2023-07-29T07:10:09;20.50;99.90
44900;DHT22;30628;51.188;6.770;2023-07-29T07:12:35;20.50;99.90
44900;DHT22;30628;51.188;6.770;2023-07-29T07:15:01;20.70;99.90
44900;DHT22;30628;51.188;6.770;2023-07-29T07:17:26;20.70;99.90
44900;DHT22;30628;51.188;6.770;2023-07-29T07:19:52;20.80;99.90
44900;DHT22;30628;51.188;6.770;2023-07-29T07:22:18;20.90;99.90
44900;DHT22;30628;51.188;6.770;2023-07-29T07:24:44;21.00;99.90
44900;DHT22;30628;51.188;6.770;2023-07-29T07:27:12;21.20;99.90
44900;DHT22;30628;51.188;6.770;2023-07-29T07:29:38;21.20;99.90
44900;DHT22;30628;51.188;6.770;2023-07-29T07:32:03;21.30;99.90
44900;DHT22;30628;51.188;6.770;2023-07-29T07:34:29;21.30;99.90
44900;DHT22;30628;51.188;6.770;2023-07-29T07:36:55;21.40;99.90
44900;DHT22;30628;51.188;6.770;2023-07-29T07:39:20;21.60;99.90
44900;DHT22;30628;51.188;6.770;2023-07-29T07:41:46;21.70;99.90
44900;DHT22;30628;51.188;6.770;2023-07-29T07:44:12;21.90;99.90
44900;DHT22;30628;51.188;6.770;2023-07-29T07:46:48;22.00;99.90
44900;DHT22;30628;51.188;6.770;2023-07-29T07:49:14;22.10;99.90
44900;DHT22;30628;51.188;6.770;2023-07-29T07:51:39;22.10;99.90
44900;DHT22;30628;51.188;6.770;2023-07-29T07:54:05;22.00;99.90
44900;DHT22;30628;51.188;6.770;2023-07-29T07:56:30;22.10;99.90
44900;DHT22;30628;51.188;6.770;2023-07-29T07:58:56;22.10;99.90
44900;DHT22;30628;51.188;6.770;2023-07-29T08:01:22;22.20;99.90
44900;DHT22;30628;51.188;6.770;2023-07-29T08:03:47;22.20;99.90
44900;DHT22;30628;51.188;6.770;2023-07-29T08:06:13;22.30;99.90
44900;DHT22;30628;51.188;6.770;2023-07-29T08:08:39;22.40;99.90
44900;DHT22;30628;51.188;6.770;2023-07-29T08:11:04;22.60;99.90
44900;DHT22;30628;51.188;6.770;2023-07-29T08:13:30;22.80;99.90
44900;DHT22;30628;51.188;6.770;2023-07-29T08:15:55;22.80;99.90
44900;DHT22;30628;51.188;6.770;2023-07-29T08:18:21;22.80;99.90
44900;DHT22;30628;51.188;6.770;2023-07-29T08:20:57;22.90;99.90
44900;DHT22;30628;51.188;6.770;2023-07-29T08:23:27;23.00;99.90
44900;DHT22;30628;51.188;6.770;2023-07-29T08:25:58;23.20;99.90
44900;DHT22;30628;51.188;6.770;2023-07-29T08:28:37;23.30;99.90
44900;DHT22;30628;51.188;6.770;2023-07-29T08:31:04;23.30;99.90
44900;DHT22;30628;51.188;6.770;2023-07-29T08:33:30;23.40;99.90
44900;DHT22;30628;51.188;6.770;2023-07-29T08:35:56;23.40;99.90
44900;DHT22;30628;51.188;6.770;2023-07-29T08:38:22;23.50;99.90
44900;DHT22;30628;51.188;6.770;2023-07-29T08:41:24;23.60;99.90
44900;DHT22;30628;51.188;6.770;2023-07-29T08:44:18;23.70;99.90
44900;DHT22;30628;51.188;6.770;2023-07-29T08:46:46;23.70;99.90
44900;DHT22;30628;51.188;6.770;2023-07-29T08:49:12;23.80;99.90
44900;DHT22;30628;51.188;6.770;2023-07-29T08:51:44;23.80;99.90
44900;DHT22;30628;51.188;6.770;2023-07-29T08:54:12;24.00;99.90
44900;DHT22;30628;51.188;6.770;2023-07-29T08:56:40;24.20;99.90
44900;DHT22;30628;51.188;6.770;2023-07-29T08:59:05;24.20;99.90
44900;DHT22;30628;51.188;6.770;2023-07-29T09:01:32;24.40;99.90
44900;DHT22;30628;51.188;6.770;2023-07-29T09:03:57;24.50;99.90
44900;DHT22;30628;51.188;6.770;2023-07-29T09:06:23;24.30;99.90
44900;DHT22;30628;51.188;6.770;2023-07-29T09:08:51;24.10;99.90
44900;DHT22;30628;51.188;6.770;2023-07-29T09:11:19;23.90;99.90
44900;DHT22;30628;51.188;6.770;2023-07-29T09:13:45;23.80;99.90
44900;DHT22;30628;51.188;6.770;2023-07-29T09:16:11;23.60;99.90
44900;DHT22;30628;51.188;6.770;2023-07-29T09:18:37;23.50;99.90
44900;DHT22;30628;51.188;6.770;2023-07-29T09:21:03;23.60;99.90
44900;DHT22;30628;51.188;6.770;2023-07-29T09:23:41;23.60;99.90
44900;DHT22;30628;51.188;6.770;2023-07-29T09:26:07;23.80;99.90
44900;DHT22;30628;51.188;6.770;2023-07-29T09:28:38;23.90;99.90
44900;DHT22;30628;51.188;6.770;2023-07-29T09:31:04;23.60;99.90
44900;DHT22;30628;51.188;6.770;2023-07-29T09:33:33;23.70;99.90
44900;DHT22;30628;51.188;6.770;2023-07-29T09:36:11;23.90;99.90
44900;DHT22;30628;51.188;6.770;2023-07-29T09:38:37;23.80;99.90
44900;DHT22;30628;51.188;6.770;2023-07-29T09:41:02;23.70;99.90
44900;DHT22;30628;51.188;6.770;2023-07-29T09:43:33;23.60;99.90
44900;DHT22;30628;51.188;6.770;2023-07-29T09:46:03;23.60;99.90
44900;DHT22;30628;51.188;6.770;2023-07-29T09:48:36;23.50;99.90
44900;DHT22;30628;51.188;6.770;2023-07-29T09:51:12;23.40;99.90
44900;DHT22;30628;51.188;6.770;2023-07-29T09:53:43;23.50;99.90
44900;DHT22;30628;51.188;6.770;2023-07-29T09:56:09;23.60;99.90
44900;DHT22;30628;51.188;6.770;2023-07-29T09:58:35;23.50;99.90
44900;DHT22;30628;51.188;6.770;2023-07-29T10:01:06;23.50;99.90
44900;DHT22;30628;51.188;6.770;2023-07-29T10:03:32;23.40;99.90
44900;DHT22;30628;51.188;6.770;2023-07-29T10:06:06;23.40;99.90
44900;DHT22;30628;51.188;6.770;2023-07-29T10:08:32;23.40;99.90
44900;DHT22;30628;51.188;6.770;2023-07-29T10:11:01;23.50;99.90
44900;DHT22;30628;51.188;6.770;2023-07-29T10:13:27;23.50;99.90
44900;DHT22;30628;51.188;6.770;2023-07-29T10:15:57;23.50;99.90
44900;DHT22;30628;51.188;6.770;2023-07-29T10:18:23;23.60;99.90
44900;DHT22;30628;51.188;6.770;2023-07-29T10:21:00;23.80;99.90
44900;DHT22;30628;51.188;6.770;2023-07-29T10:23:28;24.00;99.90
44900;DHT22;30628;51.188;6.770;2023-07-29T10:26:04;24.10;99.90
44900;DHT22;30628;51.188;6.770;2023-07-29T10:28:31;23.90;99.90
44900;DHT22;30628;51.188;6.770;2023-07-29T10:30:58;23.80;99.90
44900;DHT22;30628;51.188;6.770;2023-07-29T10:33:25;23.80;99.90
44900;DHT22;30628;51.188;6.770;2023-07-29T10:35:52;23.70;99.90
44900;DHT22;30628;51.188;6.770;2023-07-29T10:38:21;23.60;99.90
44900;DHT22;30628;51.188;6.770;2023-07-29T10:40:52;23.50;99.90
44900;DHT22;30628;51.188;6.770;2023-07-29T10:43:32;23.50;99.90
44900;DHT22;30628;51.188;6.770;2023-07-29T10:46:17;23.50;99.90
44900;DHT22;30628;51.188;6.770;2023-07-29T10:49:03;23.50;99.90
44900;DHT22;30628;51.188;6.770;2023-07-29T10:51:35;23.40;99.90
44900;DHT22;30628;51.188;6.770;2023-07-29T10:54:19;23.50;99.90
44900;DHT22;30628;51.188;6.770;2023-07-29T10:56:49;23.80;99.90
44900;DHT22;30628;51.188;6.770;2023-07-29T11:02:06;24.30;99.90
44900;DHT22;30628;51.188;6.770;2023-07-29T11:04:47;24.40;99.90
44900;DHT22;30628;51.188;6.770;2023-07-29T11:07:46;24.60;99.90
44900;DHT22;30628;51.188;6.770;2023-07-29T11:10:13;24.60;99.90
44900;DHT22;30628;51.188;6.770;2023-07-29T11:12:46;24.80;99.90
44900;DHT22;30628;51.188;6.770;2023-07-29T11:15:23;25.00;99.90
44900;DHT22;30628;51.188;6.770;2023-07-29T11:17:56;24.90;99.90
44900;DHT22;30628;51.188;6.770;2023-07-29T11:20:24;24.60;99.90
44900;DHT22;30628;51.188;6.770;2023-07-29T11:22:50;24.50;99.90
44900;DHT22;30628;51.188;6.770;2023-07-29T11:25:17;24.40;99.90
44900;DHT22;30628;51.188;6.770;2023-07-29T11:27:44;24.20;99.90
44900;DHT22;30628;51.188;6.770;2023-07-29T11:30:12;24.00;99.90
44900;DHT22;30628;51.188;6.770;2023-07-29T11:32:39;23.90;99.90
44900;DHT22;30628;51.188;6.770;2023-07-29T11:35:06;23.90;99.90
44900;DHT22;30628;51.188;6.770;2023-07-29T11:37:33;24.00;99.90
44900;DHT22;30628;51.188;6.770;2023-07-29T11:39:59;24.10;99.90
44900;DHT22;30628;51.188;6.770;2023-07-29T11:42:26;24.20;99.90
44900;DHT22;30628;51.188;6.770;2023-07-29T11:44:52;24.40;99.90
44900;DHT22;30628;51.188;6.770;2023-07-29T11:47:17;24.30;99.90
44900;DHT22;30628;51.188;6.770;2023-07-29T11:49:43;24.30;99.90
44900;DHT22;30628;51.188;6.770;2023-07-29T11:52:10;24.20;99.90
44900;DHT22;30628;51.188;6.770;2023-07-29T11:54:39;24.20;99.90
44900;DHT22;30628;51.188;6.770;2023-07-29T11:57:08;24.30;99.90
44900;DHT22;30628;51.188;6.770;2023-07-29T11:59:35;24.50;99.90
44900;DHT22;30628;51.188;6.770;2023-07-29T12:02:08;24.50;99.90
44900;DHT22;30628;51.188;6.770;2023-07-29T12:04:35;24.40;99.90
44900;DHT22;30628;51.188;6.770;2023-07-29T12:07:01;24.50;99.90
44900;DHT22;30628;51.188;6.770;2023-07-29T12:09:27;24.70;99.90
44900;DHT22;30628;51.188;6.770;2023-07-29T12:11:54;24.80;99.90
44900;DHT22;30628;51.188;6.770;2023-07-29T12:14:20;24.90;99.90
44900;DHT22;30628;51.188;6.770;2023-07-29T12:16:48;24.90;99.90
44900;DHT22;30628;51.188;6.770;2023-07-29T12:19:15;24.90;99.90
44900;DHT22;30628;51.188;6.770;2023-07-29T12:21:44;24.80;99.90
44900;DHT22;30628;51.188;6.770;2023-07-29T12:24:12;24.90;99.90
44900;DHT22;30628;51.188;6.770;2023-07-29T12:26:37;24.90;99.90
44900;DHT22;30628;51.188;6.770;2023-07-29T12:29:13;24.90;99.90
44900;DHT22;30628;51.188;6.770;2023-07-29T12:31:39;25.00;99.90
44900;DHT22;30628;51.188;6.770;2023-07-29T12:34:05;25.00;99.90
44900;DHT22;30628;51.188;6.770;2023-07-29T12:36:51;24.90;99.90
44900;DHT22;30628;51.188;6.770;2023-07-29T12:39:35;25.00;99.90
44900;DHT22;30628;51.188;6.770;2023-07-29T12:42:05;25.00;99.90
44900;DHT22;30628;51.188;6.770;2023-07-29T12:44:35;24.90;99.90
44900;DHT22;30628;51.188;6.770;2023-07-29T12:47:02;24.80;99.90
44900;DHT22;30628;51.188;6.770;2023-07-29T12:49:28;24.80;99.90
44900;DHT22;30628;51.188;6.770;2023-07-29T12:51:58;24.80;99.90
44900;DHT22;30628;51.188;6.770;2023-07-29T12:54:23;24.80;99.90
44900;DHT22;30628;51.188;6.770;2023-07-29T12:56:49;24.80;99.90
44900;DHT22;30628;51.188;6.770;2023-07-29T12:59:15;25.00;99.90
44900;DHT22;30628;51.188;6.770;2023-07-29T13:01:41;25.00;99.90
44900;DHT22;30628;51.188;6.770;2023-07-29T13:04:07;24.90;99.90
44900;DHT22;30628;51.188;6.770;2023-07-29T13:06:32;24.90;99.90
44900;DHT22;30628;51.188;6.770;2023-07-29T13:08:58;24.90;99.90
44900;DHT22;30628;51.188;6.770;2023-07-29T13:11:24;24.80;99.90
44900;DHT22;30628;51.188;6.770;2023-07-29T13:13:50;24.80;99.90
44900;DHT22;30628;51.188;6.770;2023-07-29T13:16:15;24.70;99.90
44900;DHT22;30628;51.188;6.770;2023-07-29T13:18:41;24.70;99.90
44900;DHT22;30628;51.188;6.770;2023-07-29T13:21:08;24.70;99.90
44900;DHT22;30628;51.188;6.770;2023-07-29T13:23:34;24.60;99.90
44900;DHT22;30628;51.188;6.770;2023-07-29T13:25:59;24.60;99.90
44900;DHT22;30628;51.188;6.770;2023-07-29T13:28:25;24.40;99.90
44900;DHT22;30628;51.188;6.770;2023-07-29T13:30:51;24.40;99.90
44900;DHT22;30628;51.188;6.770;2023-07-29T13:33:16;24.30;99.90
44900;DHT22;30628;51.188;6.770;2023-07-29T13:35:42;24.20;99.90
44900;DHT22;30628;51.188;6.770;2023-07-29T13:38:08;24.20;99.90
44900;DHT22;30628;51.188;6.770;2023-07-29T13:40:34;24.20;99.90
44900;DHT22;30628;51.188;6.770;2023-07-29T13:43:00;24.20;99.90
44900;DHT22;30628;51.188;6.770;2023-07-29T13:45:26;24.40;99.90
44900;DHT22;30628;51.188;6.770;2023-07-29T13:47:51;24.40;99.90
44900;DHT22;30628;51.188;6.770;2023-07-29T13:50:17;24.30;99.90
44900;DHT22;30628;51.188;6.770;2023-07-29T13:52:43;24.40;99.90
44900;DHT22;30628;51.188;6.770;2023-07-29T13:55:09;24.40;99.90
44900;DHT22;30628;51.188;6.770;2023-07-29T13:57:37;24.40;99.90
44900;DHT22;30628;51.188;6.770;2023-07-29T14:00:03;24.40;99.90
44900;DHT22;30628;51.188;6.770;2023-07-29T14:02:29;24.30;99.90
44900;DHT22;30628;51.188;6.770;2023-07-29T14:04:56;24.20;99.90
44900;DHT22;30628;51.188;6.770;2023-07-29T14:07:22;24.10;99.90
44900;DHT22;30628;51.188;6.770;2023-07-29T14:09:47;24.00;99.90
44900;DHT22;30628;51.188;6.770;2023-07-29T14:12:13;24.00;99.90
44900;DHT22;30628;51.188;6.770;2023-07-29T14:14:41;23.90;99.90
44900;DHT22;30628;51.188;6.770;2023-07-29T14:17:07;23.90;99.90
44900;DHT22;30628;51.188;6.770;2023-07-29T14:19:34;24.00;99.90
44900;DHT22;30628;51.188;6.770;2023-07-29T14:22:00;24.10;99.90
44900;DHT22;30628;51.188;6.770;2023-07-29T14:24:25;24.20;99.90
44900;DHT22;30628;51.188;6.770;2023-07-29T14:26:51;24.10;99.90
44900;DHT22;30628;51.188;6.770;2023-07-29T14:29:16;24.10;99.90
44900;DHT22;30628;51.188;6.770;2023-07-29T14:31:42;24.20;99.90
44900;DHT22;30628;51.188;6.770;2023-07-29T14:34:08;24.20;99.90
44900;DHT22;30628;51.188;6.770;2023-07-29T14:36:33;24.10;99.90
44900;DHT22;30628;51.188;6.770;2023-07-29T14:38:59;24.10;99.90
44900;DHT22;30628;51.188;6.770;2023-07-29T14:41:24;24.20;99.90
44900;DHT22;30628;51.188;6.770;2023-07-29T14:43:50;24.20;99.90
44900;DHT22;30628;51.188;6.770;2023-07-29T14:46:16;24.10;99.90
44900;DHT22;30628;51.188;6.770;2023-07-29T14:48:41;24.10;99.90
44900;DHT22;30628;51.188;6.770;2023-07-29T14:51:07;24.10;99.90
44900;DHT22;30628;51.188;6.770;2023-07-29T14:53:32;24.20;99.90
44900;DHT22;30628;51.188;6.770;2023-07-29T14:55:58;24.20;99.90
44900;DHT22;30628;51.188;6.770;2023-07-29T14:58:25;24.20;99.90
44900;DHT22;30628;51.188;6.770;2023-07-29T15:00:53;24.20;99.90
44900;DHT22;30628;51.188;6.770;2023-07-29T15:03:19;24.30;99.90
44900;DHT22;30628;51.188;6.770;2023-07-29T15:05:44;24.30;99.90
44900;DHT22;30628;51.188;6.770;2023-07-29T15:08:10;24.40;99.90
44900;DHT22;30628;51.188;6.770;2023-07-29T15:10:36;24.40;99.90
44900;DHT22;30628;51.188;6.770;2023-07-29T15:13:02;24.40;99.90
44900;DHT22;30628;51.188;6.770;2023-07-29T15:15:28;24.50;99.90
44900;DHT22;30628;51.188;6.770;2023-07-29T15:17:53;24.50;99.90
44900;DHT22;30628;51.188;6.770;2023-07-29T15:20:19;24.50;99.90
44900;DHT22;30628;51.188;6.770;2023-07-29T15:22:45;24.50;99.90
44900;DHT22;30628;51.188;6.770;2023-07-29T15:25:10;24.50;99.90
44900;DHT22;30628;51.188;6.770;2023-07-29T15:27:38;24.50;99.90
44900;DHT22;30628;51.188;6.770;2023-07-29T15:30:05;24.50;99.90
44900;DHT22;30628;51.188;6.770;2023-07-29T15:32:31;24.50;99.90
44900;DHT22;30628;51.188;6.770;2023-07-29T15:34:57;24.50;99.90
44900;DHT22;30628;51.188;6.770;2023-07-29T15:37:25;24.60;99.90
44900;DHT22;30628;51.188;6.770;2023-07-29T15:39:51;24.50;99.90
44900;DHT22;30628;51.188;6.770;2023-07-29T15:42:16;24.60;99.90
44900;DHT22;30628;51.188;6.770;2023-07-29T15:44:42;24.50;99.90